| weather.gov |
![]() |
![]() | |
| Pompano Beach, Pompano Beach Airpark |
| metric |
| D a t e | Time (est) |
Wind (mph) | Vis. (mi.) | Weather | Sky Cond. | Temperature (ºF) | Relative Humidity | Wind Chill (°F) | Heat Index (°F) | Pressure | Precipitation (in.) | ||||||
|---|---|---|---|---|---|---|---|---|---|---|---|---|---|---|---|---|---|
| Air | Dwpt | 6 hour | altimeter (in) | sea level (mb) | 1 hr | 3 hr | 6 hr | ||||||||||
| Max. | Min. | ||||||||||||||||
| 16 | 09:53 | N 6 | 10.00 | Fair | CLR | 63 | 42 | 47% | NA | NA | 30.19 | 1022.5 | |||||
| 16 | 08:53 | NW 6 | 10.00 | Fair | CLR | 58 | 40 | 51% | NA | NA | 30.17 | 1021.9 | |||||
| 16 | 07:53 | NW 3 | 10.00 | Fair | CLR | 49 | 39 | 69% | NA | NA | 30.16 | 1021.4 | |||||
| 16 | 06:53 | NW 3 | 10.00 | Fair | CLR | 47 | 36 | 48 | 45 | 66% | NA | NA | 30.14 | 1020.7 | |||
| 16 | 05:53 | N 5 | 10.00 | Fair | CLR | 46 | 37 | 71% | 44 | NA | 30.13 | 1020.3 | |||||
| 16 | 04:53 | NW 3 | 10.00 | Fair | CLR | 47 | 37 | 69% | NA | NA | 30.11 | 1019.8 | |||||
| 16 | 03:53 | NW 3 | 10.00 | Fair | CLR | 48 | 36 | 63% | NA | NA | 30.10 | 1019.3 | |||||
| 16 | 02:53 | N 7 | 10.00 | Fair | CLR | 47 | 37 | 69% | 44 | NA | 30.11 | 1019.6 | |||||
| 16 | 01:53 | NW 5 | 10.00 | Fair | CLR | 46 | 37 | 71% | 44 | NA | 30.12 | 1020.0 | |||||
| 16 | 00:53 | NW 3 | 10.00 | Fair | CLR | 46 | 36 | 54 | 45 | 68% | NA | NA | 30.13 | 1020.3 | |||
| 15 | 23:53 | Calm | 10.00 | Fair | CLR | 50 | 36 | 59% | NA | NA | 30.15 | 1021.0 | |||||
| 15 | 22:53 | NW 5 | 10.00 | Fair | CLR | 50 | 36 | 59% | 48 | NA | 30.17 | 1021.6 | |||||
| 15 | 21:53 | NW 7 | 10.00 | Fair | CLR | 50 | 36 | 59% | 47 | NA | 30.17 | 1021.6 | |||||
| 15 | 20:53 | NW 9 | 10.00 | Fair | CLR | 51 | 36 | 56% | NA | NA | 30.17 | 1021.6 | |||||
| 15 | 19:53 | NW 6 | 10.00 | Fair | CLR | 53 | 35 | 51% | NA | NA | 30.14 | 1020.8 | |||||
| 15 | 18:53 | NW 5 | 10.00 | Fair | CLR | 54 | 34 | 64 | 54 | 47% | NA | NA | 30.13 | 1020.2 | |||
| 15 | 17:53 | NW 6 | 10.00 | Fair | CLR | 58 | 32 | 38% | NA | NA | 30.12 | 1020.1 | |||||
| 15 | 16:53 | NW 6 | 10.00 | Fair | CLR | 63 | 29 | 28% | NA | NA | 30.11 | 1019.8 | |||||
| 15 | 15:53 | NW 8 | 10.00 | Fair | CLR | 64 | 31 | 29% | NA | NA | 30.12 | 1020.1 | |||||
| 15 | 14:53 | NW 9 | 10.00 | Fair | CLR | 64 | 31 | 29% | NA | NA | 30.13 | 1020.2 | |||||
| 15 | 13:53 | NW 8 | 10.00 | Fair | CLR | 63 | 36 | 37% | NA | NA | 30.15 | 1020.9 | |||||
| 15 | 12:53 | NW 7 | 10.00 | Fair | CLR | 61 | 37 | 61 | 43 | 41% | NA | NA | 30.18 | 1022.1 | |||
| 15 | 11:53 | NW 7 | 10.00 | Fair | CLR | 59 | 39 | 48% | NA | NA | 30.21 | 1023.1 | |||||
| 15 | 10:53 | NW 10 | 10.00 | Fair | CLR | 57 | 36 | 45% | NA | NA | 30.22 | 1023.4 | |||||
| 15 | 09:53 | NW 10 | 10.00 | Fair | CLR | 53 | 35 | 51% | NA | NA | 30.23 | 1023.6 | |||||
| 15 | 08:53 | NW 12 | 10.00 | Fair | CLR | 50 | 33 | 52% | 45 | NA | 30.21 | 1023.1 | |||||
| 15 | 07:53 | NW 8 | 10.00 | Fair | CLR | 45 | 33 | 63% | 41 | NA | 30.19 | 1022.4 | |||||
| 15 | 06:53 | NW 7 | 10.00 | Fair | CLR | 43 | 33 | 48 | 43 | 68% | 39 | NA | 30.17 | 1021.7 | |||
| 15 | 05:53 | NW 10 | 10.00 | Fair | CLR | 43 | 33 | 68% | 37 | NA | 30.17 | 1021.5 | |||||
| 15 | 04:53 | NW 9 | 10.00 | Fair | CLR | 44 | 34 | 68% | 39 | NA | 30.16 | 1021.4 | |||||
| 15 | 03:53 | NW 8 | 10.00 | Fair | CLR | 44 | 34 | 68% | 39 | NA | 30.17 | 1021.6 | |||||
| 15 | 02:53 | NW 13 | 10.00 | Fair | CLR | 46 | 37 | 71% | 40 | NA | 30.17 | 1021.5 | |||||
| 15 | 01:53 | NW 10 | 10.00 | Fair | CLR | 45 | 37 | 74% | 40 | NA | 30.15 | 1021.1 | |||||
| 15 | 00:53 | NW 12 | 10.00 | Fair | CLR | 48 | 39 | 55 | 47 | 71% | 43 | NA | 30.15 | 1021.0 | |||
| 14 | 23:53 | NW 12 | 10.00 | Fair | CLR | 48 | 40 | 74% | 43 | NA | 30.14 | 1020.7 | |||||
| 14 | 22:53 | NW 10 | 10.00 | Fair | CLR | 49 | 39 | 69% | 45 | NA | 30.13 | 1020.5 | |||||
| 14 | 21:53 | W 15 G 22 | 10.00 | Fair | CLR | 51 | 37 | 59% | NA | NA | 30.13 | 1020.5 | |||||
| 14 | 20:53 | W 14 | 10.00 | Fair | CLR | 52 | 36 | 55% | NA | NA | 30.12 | 1019.9 | |||||
| 14 | 19:53 | W 15 | 10.00 | Fair | CLR | 54 | 35 | 49% | NA | NA | 30.10 | 1019.4 | |||||
| 14 | 18:53 | W 7 | 10.00 | Fair | CLR | 55 | 36 | 61 | 55 | 49% | NA | NA | 30.08 | 1018.7 | |||
| 14 | 17:53 | NW 9 | 10.00 | Fair | CLR | 57 | 33 | 41% | NA | NA | 30.07 | 1018.2 | |||||
| 14 | 16:53 | W 17 G 22 | 10.00 | Fair | CLR | 60 | 33 | 36% | NA | NA | 30.05 | 1017.7 | |||||
| 14 | 15:53 | W 17 G 32 | 10.00 | Fair | CLR | 60 | 31 | 33% | NA | NA | 30.04 | 1017.4 | |||||
| 14 | 14:53 | W 22 G 25 | 10.00 | Fair and Breezy | CLR | 60 | 33 | 36% | NA | NA | 30.03 | 1017.1 | |||||
| 14 | 13:53 | NW 20 G 28 | 10.00 | Fair | CLR | 58 | 34 | 41% | NA | NA | 30.05 | 1017.7 | |||||
| 14 | 12:53 | NW 17 G 26 | 10.00 | Fair | CLR | 56 | 35 | 57 | 47 | 46% | NA | NA | 30.08 | 1018.6 | |||
| 14 | 11:53 | NW 17 G 23 | 10.00 | Fair | CLR | 55 | 34 | 45% | NA | NA | 30.11 | 1019.5 | |||||
| 14 | 10:53 | NW 15 G 29 | 10.00 | Fair | CLR | 53 | 34 | 48% | NA | NA | 30.13 | 1020.4 | |||||
| 14 | 09:53 | NW 17 G 25 | 10.00 | Fair | CLR | 51 | 34 | 52% | NA | NA | 30.14 | 1020.8 | |||||
| 14 | 08:53 | NW 18 G 25 | 10.00 | Fair | CLR | 49 | 33 | 55% | 43 | NA | 30.13 | 1020.3 | |||||
| 14 | 07:53 | NW 18 G 28 | 10.00 | Fair | CLR | 47 | 33 | 59% | 40 | NA | 30.10 | 1019.3 | |||||
| 14 | 06:53 | NW 13 | 10.00 | Fair | CLR | 47 | 36 | 55 | 47 | 66% | 41 | NA | 30.07 | 1018.2 | |||
| 14 | 05:53 | NW 17 G 26 | 10.00 | Fair | CLR | 48 | 36 | 63% | 42 | NA | 30.03 | 1017.0 | |||||
| 14 | 04:53 | NW 20 G 33 | 10.00 | Fair | CLR | 50 | 36 | 59% | 44 | NA | 30.00 | 1016.0 | |||||
| 14 | 03:53 | NW 16 G 29 | 10.00 | Fair | CLR | 52 | 39 | 61% | NA | NA | 29.99 | 1015.5 | |||||
| 14 | 02:53 | NW 18 G 26 | 10.00 | Fair | CLR | 54 | 43 | 67% | NA | NA | 29.97 | 1015.0 | |||||
| 14 | 01:53 | NW 20 | 10.00 | Fair | CLR | 55 | 43 | 64% | NA | NA | 29.95 | 1014.3 | |||||
| 14 | 00:53 | NW 15 G 23 | 10.00 | Fair | CLR | 54 | 45 | 65 | 54 | 72% | NA | NA | 29.96 | 1014.6 | |||
| 13 | 23:53 | W 17 G 28 | 10.00 | Fair | CLR | 56 | 45 | 67% | NA | NA | 29.97 | 1015.0 | |||||
| 13 | 22:53 | NW 18 G 26 | 10.00 | Fair | CLR | 58 | 46 | 65% | NA | NA | 29.97 | 1015.0 | |||||
| 13 | 21:53 | NW 14 G 24 | 10.00 | A Few Clouds | FEW038 | 59 | 47 | 64% | NA | NA | 29.97 | 1014.9 | |||||
| 13 | 20:53 | NW 18 | 10.00 | Mostly Cloudy | BKN039 | 60 | 48 | 65% | NA | NA | 29.96 | 1014.6 | |||||
| 13 | 19:53 | W 16 G 22 | 10.00 | Fair | CLR | 63 | 51 | 65% | NA | NA | 29.93 | 1013.6 | |||||
| 13 | 18:53 | W 18 G 24 | 10.00 | Fair | CLR | 65 | 51 | 82 | 65 | 61% | NA | NA | 29.90 | 1012.5 | 0.06 | ||
| 13 | 17:53 | W 17 G 26 | 10.00 | NA | NA | 68 | 51 | 55% | NA | NA | 29.87 | 1011.5 | |||||
| 13 | 16:53 | W 14 | 10.00 | Fair | CLR | 71 | 56 | 59% | NA | NA | 29.85 | 1010.9 | |||||
| 13 | 15:53 | W 18 | 10.00 | Light Rain | FEW041 BKN110 | 71 | 63 | 76% | NA | NA | 29.84 | 1010.6 | 0.06 | ||||
| 13 | 14:53 | W 15 G 24 | 10.00 | Overcast | FEW060 OVC085 | 70 | 65 | 84% | NA | NA | 29.84 | 1010.7 | 0.02 | ||||
| 13 | 13:53 | W 18 G 28 | 10.00 | Overcast | FEW042 BKN070 OVC095 | 71 | 65 | 81% | NA | NA | 29.86 | 1011.3 | 0.04 | ||||
| 13 | 12:53 | SW 20 G 28 | 10.00 | Fair | CLR | 82 | 57 | 82 | 63 | 43% | NA | 82 | 29.87 | 1011.5 | |||
| 13 | 11:53 | SW 20 G 25 | 10.00 | Fair | CLR | 78 | 61 | 56% | NA | 80 | 29.92 | 1013.1 | |||||
| 13 | 10:53 | SW 16 G 25 | 10.00 | Fair | CLR | 78 | 60 | 54% | NA | 79 | 29.94 | 1013.8 | |||||
| D a t e | Time (est) |
Wind (mph) | Vis. (mi.) | Weather | Sky Cond. | Air | Dwpt | Max. | Min. | Relative Humidity | Wind Chill (°F) | Heat Index (°F) | altimeter (in.) | sea level (mb) |
1 hr | 3 hr | 6 hr |
| 6 hour | |||||||||||||||||
| Temperature (ºF) | Pressure | Precipitation (in.) | |||||||||||||||
| National Weather Service Southern Region Headquarters Fort Worth, Texas Disclaimer |
Last Modified: Febuary, 7 2012 Privacy Policy |
|